sensor_id;sensor_type;location;lat;lon;timestamp;pressure;altitude;pressure_sealevel;temperature;humidity
66176;BME280;52977;44.816;20.538;2023-03-25T00:02:01;99135.59;;;17.97;42.67
66176;BME280;52977;44.816;20.538;2023-03-25T00:04:30;99152.50;;;17.91;42.92
66176;BME280;52977;44.816;20.538;2023-03-25T00:06:56;99165.19;;;17.96;43.13
66176;BME280;52977;44.816;20.538;2023-03-25T00:09:22;99166.00;;;18.00;43.09
66176;BME280;52977;44.816;20.538;2023-03-25T00:11:49;99180.69;;;18.19;42.44
66176;BME280;52977;44.816;20.538;2023-03-25T00:14:16;99175.50;;;18.10;42.67
66176;BME280;52977;44.816;20.538;2023-03-25T00:16:42;99181.72;;;17.92;43.05
66176;BME280;52977;44.816;20.538;2023-03-25T00:19:13;99176.50;;;17.87;43.19
66176;BME280;52977;44.816;20.538;2023-03-25T00:21:41;99146.84;;;17.70;42.87
66176;BME280;52977;44.816;20.538;2023-03-25T00:24:11;99178.59;;;18.01;42.61
66176;BME280;52977;44.816;20.538;2023-03-25T00:26:37;99085.91;;;17.37;42.93
66176;BME280;52977;44.816;20.538;2023-03-25T00:29:08;99164.75;;;17.94;42.78
66176;BME280;52977;44.816;20.538;2023-03-25T00:31:34;99175.00;;;17.93;43.01
66176;BME280;52977;44.816;20.538;2023-03-25T00:34:01;99142.56;;;17.80;42.59
66176;BME280;52977;44.816;20.538;2023-03-25T00:36:27;99165.97;;;17.97;42.85
66176;BME280;52977;44.816;20.538;2023-03-25T00:38:53;99146.91;;;17.84;42.90
66176;BME280;52977;44.816;20.538;2023-03-25T00:41:23;99150.88;;;17.87;42.75
66176;BME280;52977;44.816;20.538;2023-03-25T00:44:02;99127.44;;;17.59;42.80
66176;BME280;52977;44.816;20.538;2023-03-25T00:46:31;99140.47;;;17.62;43.30
66176;BME280;52977;44.816;20.538;2023-03-25T00:48:59;99143.72;;;17.75;43.39
66176;BME280;52977;44.816;20.538;2023-03-25T00:51:27;99131.03;;;17.67;43.41
66176;BME280;52977;44.816;20.538;2023-03-25T00:53:57;99131.44;;;17.69;43.31
66176;BME280;52977;44.816;20.538;2023-03-25T00:56:28;99119.22;;;17.70;42.83
66176;BME280;52977;44.816;20.538;2023-03-25T00:58:55;99157.13;;;17.80;43.21
66176;BME280;52977;44.816;20.538;2023-03-25T01:01:24;99119.50;;;17.54;43.06
66176;BME280;52977;44.816;20.538;2023-03-25T01:03:57;99161.97;;;17.90;43.08
66176;BME280;52977;44.816;20.538;2023-03-25T01:06:26;99106.56;;;17.62;42.98
66176;BME280;52977;44.816;20.538;2023-03-25T01:08:57;99151.38;;;18.00;42.71
66176;BME280;52977;44.816;20.538;2023-03-25T01:11:29;99076.94;;;17.51;42.74
66176;BME280;52977;44.816;20.538;2023-03-25T01:13:57;99112.97;;;17.76;42.74
66176;BME280;52977;44.816;20.538;2023-03-25T01:16:43;99130.34;;;17.84;42.69
66176;BME280;52977;44.816;20.538;2023-03-25T01:19:10;99145.81;;;17.92;42.85
66176;BME280;52977;44.816;20.538;2023-03-25T01:21:37;99097.06;;;17.55;42.57
66176;BME280;52977;44.816;20.538;2023-03-25T01:24:04;99066.16;;;17.32;42.52
66176;BME280;52977;44.816;20.538;2023-03-25T01:26:31;99143.06;;;17.92;42.54
66176;BME280;52977;44.816;20.538;2023-03-25T01:28:57;99143.09;;;17.96;42.54
66176;BME280;52977;44.816;20.538;2023-03-25T01:31:24;99140.72;;;17.95;42.34
66176;BME280;52977;44.816;20.538;2023-03-25T01:33:57;99145.44;;;17.94;42.39
66176;BME280;52977;44.816;20.538;2023-03-25T01:36:25;99120.91;;;17.85;42.13
66176;BME280;52977;44.816;20.538;2023-03-25T01:38:55;99130.38;;;17.88;42.40
66176;BME280;52977;44.816;20.538;2023-03-25T01:41:24;99137.84;;;17.87;42.35
66176;BME280;52977;44.816;20.538;2023-03-25T01:46:40;99126.38;;;17.82;42.44
66176;BME280;52977;44.816;20.538;2023-03-25T01:49:11;99130.34;;;17.84;42.28
66176;BME280;52977;44.816;20.538;2023-03-25T01:51:42;99122.47;;;17.79;42.45
66176;BME280;52977;44.816;20.538;2023-03-25T01:54:11;99130.34;;;17.84;42.42
66176;BME280;52977;44.816;20.538;2023-03-25T01:56:39;99127.59;;;17.84;42.35
66176;BME280;52977;44.816;20.538;2023-03-25T01:59:07;99116.16;;;17.82;42.60
66176;BME280;52977;44.816;20.538;2023-03-25T02:01:35;99114.53;;;17.74;42.51
66176;BME280;52977;44.816;20.538;2023-03-25T02:04:02;99067.44;;;17.45;42.49
66176;BME280;52977;44.816;20.538;2023-03-25T02:06:47;99121.25;;;17.80;42.36
66176;BME280;52977;44.816;20.538;2023-03-25T02:09:16;99125.59;;;17.81;42.33
66176;BME280;52977;44.816;20.538;2023-03-25T02:11:44;99114.56;;;17.81;42.44
66176;BME280;52977;44.816;20.538;2023-03-25T02:14:17;99123.25;;;17.80;42.46
66176;BME280;52977;44.816;20.538;2023-03-25T02:22:24;99112.97;;;17.76;42.58
66176;BME280;52977;44.816;20.538;2023-03-25T02:28:35;99105.09;;;17.75;42.65
66176;BME280;52977;44.816;20.538;2023-03-25T02:31:35;99102.28;;;17.71;42.85
66176;BME280;52977;44.816;20.538;2023-03-25T02:44:42;99112.13;;;17.69;42.80
66176;BME280;52977;44.816;20.538;2023-03-25T02:47:16;99118.41;;;17.69;42.80
66176;BME280;52977;44.816;20.538;2023-03-25T02:49:48;99101.81;;;17.58;42.93
66176;BME280;52977;44.816;20.538;2023-03-25T02:52:24;99104.56;;;17.58;42.91
66176;BME280;52977;44.816;20.538;2023-03-25T02:54:53;99107.34;;;17.62;42.65
66176;BME280;52977;44.816;20.538;2023-03-25T02:57:29;99106.13;;;17.59;43.02
66176;BME280;52977;44.816;20.538;2023-03-25T02:59:57;99093.84;;;17.46;42.85
66176;BME280;52977;44.816;20.538;2023-03-25T03:02:26;99041.59;;;17.12;42.97
66176;BME280;52977;44.816;20.538;2023-03-25T03:04:54;99115.56;;;17.55;43.01
66176;BME280;52977;44.816;20.538;2023-03-25T03:07:25;99087.09;;;17.40;43.12
66176;BME280;52977;44.816;20.538;2023-03-25T03:18:10;99113.59;;;17.52;43.26
66176;BME280;52977;44.816;20.538;2023-03-25T03:21:19;99123.84;;;17.51;42.98
66176;BME280;52977;44.816;20.538;2023-03-25T03:29:18;99108.84;;;17.49;43.34
66176;BME280;52977;44.816;20.538;2023-03-25T03:31:59;99113.16;;;17.46;43.23
66176;BME280;52977;44.816;20.538;2023-03-25T03:34:33;99111.94;;;17.43;43.24
66176;BME280;52977;44.816;20.538;2023-03-25T03:37:06;99102.06;;;17.39;43.05
66176;BME280;52977;44.816;20.538;2023-03-25T03:39:35;99058.88;;;17.05;43.36
66176;BME280;52977;44.816;20.538;2023-03-25T03:42:08;99085.78;;;17.19;43.50
66176;BME280;52977;44.816;20.538;2023-03-25T03:44:38;99072.66;;;17.09;43.40
66176;BME280;52977;44.816;20.538;2023-03-25T03:47:14;99114.72;;;17.43;43.39
66176;BME280;52977;44.816;20.538;2023-03-25T03:49:47;99088.16;;;17.24;43.31
66176;BME280;52977;44.816;20.538;2023-03-25T03:52:29;99114.72;;;17.43;43.41
66176;BME280;52977;44.816;20.538;2023-03-25T03:55:04;99118.25;;;17.44;43.41
66176;BME280;52977;44.816;20.538;2023-03-25T03:57:50;99106.41;;;17.40;43.42
66176;BME280;52977;44.816;20.538;2023-03-25T04:00:25;99043.06;;;16.99;43.47
66176;BME280;52977;44.816;20.538;2023-03-25T04:05:28;99102.09;;;17.42;43.19
66176;BME280;52977;44.816;20.538;2023-03-25T04:07:59;99109.53;;;17.38;43.36
66176;BME280;52977;44.816;20.538;2023-03-25T04:12:55;99116.66;;;17.39;43.42
66176;BME280;52977;44.816;20.538;2023-03-25T04:15:23;99098.84;;;17.30;43.21
66176;BME280;52977;44.816;20.538;2023-03-25T04:17:48;99086.56;;;17.20;43.24
66176;BME280;52977;44.816;20.538;2023-03-25T04:20:17;99126.13;;;17.42;43.12
66176;BME280;52977;44.816;20.538;2023-03-25T04:22:48;99064.69;;;16.97;43.38
66176;BME280;52977;44.816;20.538;2023-03-25T04:25:16;99136.34;;;17.38;43.58
66176;BME280;52977;44.816;20.538;2023-03-25T04:27:42;99129.22;;;17.37;43.59
66176;BME280;52977;44.816;20.538;2023-03-25T04:30:14;99138.72;;;17.36;43.56
66176;BME280;52977;44.816;20.538;2023-03-25T04:32:42;99136.31;;;17.34;43.53
66176;BME280;52977;44.816;20.538;2023-03-25T04:35:15;99098.69;;;17.08;43.37
66176;BME280;52977;44.816;20.538;2023-03-25T04:37:41;99138.31;;;17.37;43.44
66176;BME280;52977;44.816;20.538;2023-03-25T04:40:11;99144.22;;;17.36;43.37
66176;BME280;52977;44.816;20.538;2023-03-25T04:42:38;99141.47;;;17.36;43.36
66176;BME280;52977;44.816;20.538;2023-03-25T04:45:08;99148.53;;;17.33;43.55
66176;BME280;52977;44.816;20.538;2023-03-25T04:47:38;99148.94;;;17.35;43.53
66176;BME280;52977;44.816;20.538;2023-03-25T04:50:24;99004.72;;;16.42;43.59
66176;BME280;52977;44.816;20.538;2023-03-25T04:52:52;99106.53;;;17.06;43.57
66176;BME280;52977;44.816;20.538;2023-03-25T04:55:20;99159.53;;;17.30;43.69
66176;BME280;52977;44.816;20.538;2023-03-25T04:57:47;99100.16;;;16.98;43.68
66176;BME280;52977;44.816;20.538;2023-03-25T05:00:14;99155.16;;;17.29;43.48
66176;BME280;52977;44.816;20.538;2023-03-25T05:02:42;99155.16;;;17.29;43.63
66176;BME280;52977;44.816;20.538;2023-03-25T05:05:10;99153.22;;;17.29;43.58
66176;BME280;52977;44.816;20.538;2023-03-25T05:07:47;99090.63;;;16.88;43.54
66176;BME280;52977;44.816;20.538;2023-03-25T05:10:18;99162.72;;;17.35;43.41
66176;BME280;52977;44.816;20.538;2023-03-25T05:12:45;99153.59;;;17.28;43.65
66176;BME280;52977;44.816;20.538;2023-03-25T05:15:11;99159.97;;;17.35;43.78
66176;BME280;52977;44.816;20.538;2023-03-25T05:17:38;99129.75;;;17.05;43.58
66176;BME280;52977;44.816;20.538;2023-03-25T05:20:06;99141.31;;;17.21;43.93
66176;BME280;52977;44.816;20.538;2023-03-25T05:22:37;99136.91;;;17.13;44.01
66176;BME280;52977;44.816;20.538;2023-03-25T05:25:05;99172.53;;;17.29;44.18
66176;BME280;52977;44.816;20.538;2023-03-25T05:27:32;99174.09;;;17.30;44.33
66176;BME280;52977;44.816;20.538;2023-03-25T05:29:59;99155.06;;;17.14;44.24
66176;BME280;52977;44.816;20.538;2023-03-25T05:32:27;99145.13;;;17.06;44.19
66176;BME280;52977;44.816;20.538;2023-03-25T05:34:58;99175.28;;;17.29;44.65
66176;BME280;52977;44.816;20.538;2023-03-25T05:37:24;99132.88;;;17.00;44.24
66176;BME280;52977;44.816;20.538;2023-03-25T05:39:49;99184.38;;;17.33;44.27
66176;BME280;52977;44.816;20.538;2023-03-25T05:42:16;99167.75;;;17.22;44.29
66176;BME280;52977;44.816;20.538;2023-03-25T05:44:42;99176.41;;;17.21;44.45
66176;BME280;52977;44.816;20.538;2023-03-25T05:47:19;99160.53;;;17.11;44.33
66176;BME280;52977;44.816;20.538;2023-03-25T05:49:47;99185.44;;;17.21;44.58
66176;BME280;52977;44.816;20.538;2023-03-25T05:52:13;99210.00;;;17.34;44.38
66176;BME280;52977;44.816;20.538;2023-03-25T05:54:42;99178.63;;;17.08;44.29
66176;BME280;52977;44.816;20.538;2023-03-25T05:57:08;99207.63;;;17.32;44.38
66176;BME280;52977;44.816;20.538;2023-03-25T05:59:34;99160.50;;;17.07;44.21
66176;BME280;52977;44.816;20.538;2023-03-25T06:02:05;99209.66;;;17.39;43.98
66176;BME280;52977;44.816;20.538;2023-03-25T06:04:34;99227.00;;;17.39;43.91
66176;BME280;52977;44.816;20.538;2023-03-25T06:07:07;99224.69;;;17.45;43.74
66176;BME280;52977;44.816;20.538;2023-03-25T06:09:48;99215.25;;;17.50;43.55
66176;BME280;52977;44.816;20.538;2023-03-25T06:12:16;99068.59;;;16.51;43.54
66176;BME280;52977;44.816;20.538;2023-03-25T06:14:44;99180.75;;;17.22;43.51
66176;BME280;52977;44.816;20.538;2023-03-25T06:17:15;99198.84;;;17.19;43.97
66176;BME280;52977;44.816;20.538;2023-03-25T06:19:43;99171.56;;;17.11;43.56
66176;BME280;52977;44.816;20.538;2023-03-25T06:22:11;99221.16;;;17.48;43.62
66176;BME280;52977;44.816;20.538;2023-03-25T06:24:38;99213.97;;;17.36;43.92
66176;BME280;52977;44.816;20.538;2023-03-25T06:27:06;99196.22;;;17.34;43.72
66176;BME280;52977;44.816;20.538;2023-03-25T06:29:34;99227.94;;;17.58;43.73
66176;BME280;52977;44.816;20.538;2023-03-25T06:32:04;99227.94;;;17.58;43.88
66176;BME280;52977;44.816;20.538;2023-03-25T06:34:31;99230.31;;;17.56;44.11
66176;BME280;52977;44.816;20.538;2023-03-25T06:37:00;99222.38;;;17.51;44.07
66176;BME280;52977;44.816;20.538;2023-03-25T06:39:28;99223.91;;;17.48;44.53
66176;BME280;52977;44.816;20.538;2023-03-25T06:42:03;99228.31;;;17.56;44.05
66176;BME280;52977;44.816;20.538;2023-03-25T06:44:44;99217.94;;;17.42;44.32
66176;BME280;52977;44.816;20.538;2023-03-25T06:47:35;99248.34;;;17.46;44.45
66176;BME280;52977;44.816;20.538;2023-03-25T06:50:01;99252.19;;;17.38;44.66
66176;BME280;52977;44.816;20.538;2023-03-25T06:52:27;99259.38;;;17.46;44.73
66176;BME280;52977;44.816;20.538;2023-03-25T06:54:53;99253.44;;;17.44;44.30
66176;BME280;52977;44.816;20.538;2023-03-25T06:57:19;99232.25;;;17.14;44.52
66176;BME280;52977;44.816;20.538;2023-03-25T06:59:45;99259.16;;;17.24;44.86
66176;BME280;52977;44.816;20.538;2023-03-25T07:02:13;99218.50;;;16.84;45.06
66176;BME280;52977;44.816;20.538;2023-03-25T07:04:39;99249.97;;;17.13;45.30
66176;BME280;52977;44.816;20.538;2023-03-25T07:07:07;99262.34;;;17.27;45.24
66176;BME280;52977;44.816;20.538;2023-03-25T07:09:33;99194.78;;;16.75;45.86
66176;BME280;52977;44.816;20.538;2023-03-25T07:12:00;99265.34;;;17.14;45.91
66176;BME280;52977;44.816;20.538;2023-03-25T07:14:26;99274.09;;;17.20;45.85
66176;BME280;52977;44.816;20.538;2023-03-25T07:16:52;99275.25;;;17.19;45.73
66176;BME280;52977;44.816;20.538;2023-03-25T07:19:18;99267.59;;;17.05;46.23
66176;BME280;52977;44.816;20.538;2023-03-25T07:21:45;99263.81;;;16.86;46.87
66176;BME280;52977;44.816;20.538;2023-03-25T07:24:11;99292.66;;;16.92;47.36
66176;BME280;52977;44.816;20.538;2023-03-25T07:26:37;99252.91;;;16.63;47.76
66176;BME280;52977;44.816;20.538;2023-03-25T07:29:03;99250.50;;;16.58;47.84
66176;BME280;52977;44.816;20.538;2023-03-25T07:31:29;99279.91;;;16.81;48.55
66176;BME280;52977;44.816;20.538;2023-03-25T07:33:56;99279.00;;;16.73;48.82
66176;BME280;52977;44.816;20.538;2023-03-25T07:36:24;99288.50;;;16.75;49.16
66176;BME280;52977;44.816;20.538;2023-03-25T07:38:51;99286.72;;;16.60;49.61
66176;BME280;52977;44.816;20.538;2023-03-25T07:41:17;99172.94;;;15.72;49.76
66176;BME280;52977;44.816;20.538;2023-03-25T07:44:00;99273.53;;;16.46;50.05
66176;BME280;52977;44.816;20.538;2023-03-25T07:46:30;99287.28;;;16.43;50.07
66176;BME280;52977;44.816;20.538;2023-03-25T07:48:56;99305.63;;;16.62;50.51
66176;BME280;52977;44.816;20.538;2023-03-25T07:51:22;99269.56;;;16.44;50.28
66176;BME280;52977;44.816;20.538;2023-03-25T07:53:48;99278.09;;;16.35;50.43
66176;BME280;52977;44.816;20.538;2023-03-25T07:56:14;99309.22;;;16.66;50.28
66176;BME280;52977;44.816;20.538;2023-03-25T07:58:41;99307.31;;;16.70;50.83
66176;BME280;52977;44.816;20.538;2023-03-25T08:01:09;99281.69;;;16.39;51.29
66176;BME280;52977;44.816;20.538;2023-03-25T08:03:35;99284.75;;;16.34;51.72
66176;BME280;52977;44.816;20.538;2023-03-25T08:06:03;99260.81;;;16.38;52.14
66176;BME280;52977;44.816;20.538;2023-03-25T08:08:29;99284.94;;;16.45;52.37
66176;BME280;52977;44.816;20.538;2023-03-25T08:10:55;99296.78;;;16.49;52.61
66176;BME280;52977;44.816;20.538;2023-03-25T08:13:21;99311.00;;;16.51;53.15
66176;BME280;52977;44.816;20.538;2023-03-25T08:15:47;99275.34;;;16.35;52.97
66176;BME280;52977;44.816;20.538;2023-03-25T08:18:13;99312.63;;;16.55;53.38
66176;BME280;52977;44.816;20.538;2023-03-25T08:20:40;99196.44;;;15.66;53.97
66176;BME280;52977;44.816;20.538;2023-03-25T08:23:06;99284.88;;;16.14;54.72
66176;BME280;52977;44.816;20.538;2023-03-25T08:25:39;99316.50;;;16.24;55.22
66176;BME280;52977;44.816;20.538;2023-03-25T08:28:08;99251.94;;;15.95;55.02
66176;BME280;52977;44.816;20.538;2023-03-25T08:30:35;99311.69;;;16.44;55.21
66176;BME280;52977;44.816;20.538;2023-03-25T08:33:06;99313.31;;;16.49;56.20
66176;BME280;52977;44.816;20.538;2023-03-25T08:35:35;99284.09;;;16.40;57.02
66176;BME280;52977;44.816;20.538;2023-03-25T08:38:01;99316.72;;;16.65;57.26
66176;BME280;52977;44.816;20.538;2023-03-25T08:40:30;99288.59;;;16.52;57.29
66176;BME280;52977;44.816;20.538;2023-03-25T08:42:57;99285.19;;;16.36;58.17
66176;BME280;52977;44.816;20.538;2023-03-25T08:45:23;99325.97;;;16.53;58.75
66176;BME280;52977;44.816;20.538;2023-03-25T08:47:49;99313.69;;;16.47;59.24
66176;BME280;52977;44.816;20.538;2023-03-25T08:50:15;99316.16;;;16.56;59.82
66176;BME280;52977;44.816;20.538;2023-03-25T08:52:42;99282.50;;;16.13;60.09
66176;BME280;52977;44.816;20.538;2023-03-25T08:55:08;99328.50;;;16.35;61.16
66176;BME280;52977;44.816;20.538;2023-03-25T08:57:35;99319.78;;;16.33;61.10
66176;BME280;52977;44.816;20.538;2023-03-25T09:00:03;99281.69;;;16.12;61.44
66176;BME280;52977;44.816;20.538;2023-03-25T09:02:40;99263.56;;;15.84;62.00
66176;BME280;52977;44.816;20.538;2023-03-25T09:05:09;99319.09;;;16.40;61.91
66176;BME280;52977;44.816;20.538;2023-03-25T09:07:37;99320.31;;;16.43;61.89
66176;BME280;52977;44.816;20.538;2023-03-25T09:10:05;99290.84;;;16.20;62.19
66176;BME280;52977;44.816;20.538;2023-03-25T09:12:32;99316.28;;;16.36;62.56
66176;BME280;52977;44.816;20.538;2023-03-25T09:14:59;99325.22;;;16.30;63.28
66176;BME280;52977;44.816;20.538;2023-03-25T09:17:25;99307.16;;;16.05;63.41
66176;BME280;52977;44.816;20.538;2023-03-25T09:19:52;99321.41;;;16.11;64.27
66176;BME280;52977;44.816;20.538;2023-03-25T09:22:18;99234.75;;;15.55;64.43
66176;BME280;52977;44.816;20.538;2023-03-25T09:24:44;99322.34;;;15.96;65.69
66176;BME280;52977;44.816;20.538;2023-03-25T09:27:10;99278.97;;;15.66;65.83
66176;BME280;52977;44.816;20.538;2023-03-25T09:29:36;99314.72;;;15.85;66.28
66176;BME280;52977;44.816;20.538;2023-03-25T09:32:02;99330.72;;;16.03;66.11
66176;BME280;52977;44.816;20.538;2023-03-25T09:34:29;99261.66;;;15.42;66.97
66176;BME280;52977;44.816;20.538;2023-03-25T09:36:55;99155.59;;;14.75;67.84
66176;BME280;52977;44.816;20.538;2023-03-25T09:39:22;99316.88;;;15.76;68.04
66176;BME280;52977;44.816;20.538;2023-03-25T09:46:43;99266.94;;;15.31;69.36
66176;BME280;52977;44.816;20.538;2023-03-25T09:49:16;99325.91;;;15.77;69.82
66176;BME280;52977;44.816;20.538;2023-03-25T09:51:45;99307.25;;;15.66;69.38
66176;BME280;52977;44.816;20.538;2023-03-25T09:56:53;99269.25;;;15.29;69.47
66176;BME280;52977;44.816;20.538;2023-03-25T09:59:22;99310.66;;;15.36;69.60
66176;BME280;52977;44.816;20.538;2023-03-25T10:02:26;99340.44;;;15.54;69.64
66176;BME280;52977;44.816;20.538;2023-03-25T10:05:02;99336.91;;;15.53;68.94
66176;BME280;52977;44.816;20.538;2023-03-25T10:13:34;99333.69;;;15.28;69.47
66176;BME280;52977;44.816;20.538;2023-03-25T10:16:20;99329.19;;;15.20;69.51
66176;BME280;52977;44.816;20.538;2023-03-25T10:19:20;99331.84;;;15.36;69.44
66176;BME280;52977;44.816;20.538;2023-03-25T10:22:00;99344.44;;;15.37;69.06
66176;BME280;52977;44.816;20.538;2023-03-25T10:24:33;99322.72;;;15.32;68.64
66176;BME280;52977;44.816;20.538;2023-03-25T10:27:34;99316.94;;;15.37;68.19
66176;BME280;52977;44.816;20.538;2023-03-25T10:30:21;99326.63;;;15.50;65.80
66176;BME280;52977;44.816;20.538;2023-03-25T10:32:54;99269.22;;;15.26;66.64
66176;BME280;52977;44.816;20.538;2023-03-25T10:35:24;99275.56;;;15.30;65.30
66176;BME280;52977;44.816;20.538;2023-03-25T10:37:57;99294.84;;;15.53;64.14
66176;BME280;52977;44.816;20.538;2023-03-25T10:40:33;99311.66;;;15.71;64.04
66176;BME280;52977;44.816;20.538;2023-03-25T10:45:29;99294.00;;;15.72;63.71
66176;BME280;52977;44.816;20.538;2023-03-25T10:48:04;99193.13;;;15.10;63.58
66176;BME280;52977;44.816;20.538;2023-03-25T10:50:31;99267.50;;;15.64;63.28
66176;BME280;52977;44.816;20.538;2023-03-25T10:52:57;99219.28;;;15.24;62.91
66176;BME280;52977;44.816;20.538;2023-03-25T10:55:27;99265.09;;;15.59;63.52
66176;BME280;52977;44.816;20.538;2023-03-25T10:57:57;99299.66;;;16.02;62.99
66176;BME280;52977;44.816;20.538;2023-03-25T11:00:23;99298.53;;;16.07;63.30
66176;BME280;52977;44.816;20.538;2023-03-25T11:02:51;99290.06;;;16.19;62.42
66176;BME280;52977;44.816;20.538;2023-03-25T11:05:20;99301.56;;;16.25;61.80
66176;BME280;52977;44.816;20.538;2023-03-25T11:07:56;99291.47;;;16.33;61.64
66176;BME280;52977;44.816;20.538;2023-03-25T11:10:31;99275.19;;;16.24;61.33
66176;BME280;52977;44.816;20.538;2023-03-25T11:13:00;99286.25;;;16.28;60.86
66176;BME280;52977;44.816;20.538;2023-03-25T11:15:34;99284.16;;;16.17;60.72
66176;BME280;52977;44.816;20.538;2023-03-25T11:18:11;99278.94;;;16.12;61.16
66176;BME280;52977;44.816;20.538;2023-03-25T11:20:45;99273.06;;;16.14;62.08
66176;BME280;52977;44.816;20.538;2023-03-25T11:23:36;99265.34;;;16.23;61.89
66176;BME280;52977;44.816;20.538;2023-03-25T11:28:44;99268.72;;;16.70;59.36
66176;BME280;52977;44.816;20.538;2023-03-25T11:31:17;99217.78;;;16.26;59.21
66176;BME280;52977;44.816;20.538;2023-03-25T11:33:47;99265.28;;;16.46;58.65
66176;BME280;52977;44.816;20.538;2023-03-25T11:36:28;99259.84;;;16.53;58.79
66176;BME280;52977;44.816;20.538;2023-03-25T11:39:08;99234.66;;;16.51;58.98
66176;BME280;52977;44.816;20.538;2023-03-25T11:41:35;99243.53;;;16.68;58.01
66176;BME280;52977;44.816;20.538;2023-03-25T11:44:04;99243.28;;;16.80;56.92
66176;BME280;52977;44.816;20.538;2023-03-25T11:46:31;99232.50;;;16.68;57.76
66176;BME280;52977;44.816;20.538;2023-03-25T11:49:19;99229.50;;;16.80;56.57
66176;BME280;52977;44.816;20.538;2023-03-25T11:51:50;99219.22;;;16.77;55.47
66176;BME280;52977;44.816;20.538;2023-03-25T11:54:24;99228.97;;;17.01;54.58
66176;BME280;52977;44.816;20.538;2023-03-25T11:56:51;99203.56;;;16.85;53.98
66176;BME280;52977;44.816;20.538;2023-03-25T11:59:42;99197.66;;;16.86;53.23
66176;BME280;52977;44.816;20.538;2023-03-25T12:02:28;99226.25;;;17.05;53.76
66176;BME280;52977;44.816;20.538;2023-03-25T12:07:23;99205.09;;;17.16;53.83
66176;BME280;52977;44.816;20.538;2023-03-25T12:09:55;99202.06;;;17.29;53.18
66176;BME280;52977;44.816;20.538;2023-03-25T12:12:32;99201.28;;;17.28;52.73
66176;BME280;52977;44.816;20.538;2023-03-25T12:15:32;99207.13;;;17.19;52.71
66176;BME280;52977;44.816;20.538;2023-03-25T12:18:11;99199.25;;;17.21;52.28
66176;BME280;52977;44.816;20.538;2023-03-25T12:37:52;99183.19;;;17.83;51.65
66176;BME280;52977;44.816;20.538;2023-03-25T12:49:23;99168.72;;;17.45;51.62
66176;BME280;52977;44.816;20.538;2023-03-25T12:54:40;99125.19;;;17.23;51.86
66176;BME280;52977;44.816;20.538;2023-03-25T13:00:47;99166.97;;;17.22;51.65
66176;BME280;52977;44.816;20.538;2023-03-25T13:05:57;99157.78;;;16.77;53.82
66176;BME280;52977;44.816;20.538;2023-03-25T13:11:06;99156.38;;;16.56;53.62
66176;BME280;52977;44.816;20.538;2023-03-25T13:13:34;99152.78;;;16.52;54.50
66176;BME280;52977;44.816;20.538;2023-03-25T13:21:15;99133.44;;;16.14;55.75
66176;BME280;52977;44.816;20.538;2023-03-25T13:23:44;99155.00;;;16.39;55.59
66176;BME280;52977;44.816;20.538;2023-03-25T13:26:15;99133.81;;;16.43;54.76
66176;BME280;52977;44.816;20.538;2023-03-25T13:29:05;99133.44;;;16.45;55.83
66176;BME280;52977;44.816;20.538;2023-03-25T13:31:41;99060.13;;;15.72;55.81
66176;BME280;52977;44.816;20.538;2023-03-25T13:34:34;99118.13;;;16.17;56.16
66176;BME280;52977;44.816;20.538;2023-03-25T13:37:42;99134.41;;;16.26;56.31
66176;BME280;52977;44.816;20.538;2023-03-25T13:45:22;99058.66;;;16.09;55.24
66176;BME280;52977;44.816;20.538;2023-03-25T13:48:14;99098.06;;;16.50;55.16
66176;BME280;52977;44.816;20.538;2023-03-25T13:50:42;99078.13;;;16.27;55.73
66176;BME280;52977;44.816;20.538;2023-03-25T13:53:26;99044.56;;;16.14;56.22
66176;BME280;52977;44.816;20.538;2023-03-25T13:56:06;99111.22;;;16.64;56.22
66176;BME280;52977;44.816;20.538;2023-03-25T14:01:18;99101.34;;;16.60;55.96
66176;BME280;52977;44.816;20.538;2023-03-25T14:12:35;99026.00;;;16.45;55.64
66176;BME280;52977;44.816;20.538;2023-03-25T14:15:18;99041.28;;;16.76;55.44
66176;BME280;52977;44.816;20.538;2023-03-25T14:17:45;99072.28;;;17.07;54.23
66176;BME280;52977;44.816;20.538;2023-03-25T14:20:23;99073.53;;;16.75;54.75
66176;BME280;52977;44.816;20.538;2023-03-25T14:23:05;98992.56;;;16.46;54.18
66176;BME280;52977;44.816;20.538;2023-03-25T14:25:56;99059.69;;;17.10;54.08
66176;BME280;52977;44.816;20.538;2023-03-25T14:28:38;99009.84;;;16.84;54.31
66176;BME280;52977;44.816;20.538;2023-03-25T14:44:43;99040.50;;;17.24;55.31
66176;BME280;52977;44.816;20.538;2023-03-25T14:49:55;99017.56;;;17.13;55.05
66176;BME280;52977;44.816;20.538;2023-03-25T14:54:58;99041.91;;;17.00;56.09
66176;BME280;52977;44.816;20.538;2023-03-25T14:57:28;99004.84;;;16.52;56.42
66176;BME280;52977;44.816;20.538;2023-03-25T15:00:01;99053.56;;;16.86;56.74
66176;BME280;52977;44.816;20.538;2023-03-25T15:02:40;98978.34;;;16.37;56.97
66176;BME280;52977;44.816;20.538;2023-03-25T15:05:17;99013.31;;;16.33;57.82
66176;BME280;52977;44.816;20.538;2023-03-25T15:07:50;99064.69;;;16.55;58.21
66176;BME280;52977;44.816;20.538;2023-03-25T15:12:53;99036.06;;;16.30;58.57
66176;BME280;52977;44.816;20.538;2023-03-25T15:15:53;99074.72;;;16.37;58.25
66176;BME280;52977;44.816;20.538;2023-03-25T15:24:06;99038.38;;;16.24;58.93
66176;BME280;52977;44.816;20.538;2023-03-25T15:26:42;99043.81;;;16.17;58.33
66176;BME280;52977;44.816;20.538;2023-03-25T15:35:31;99028.16;;;16.25;57.26
66176;BME280;52977;44.816;20.538;2023-03-25T15:43:53;99033.41;;;16.03;57.53
66176;BME280;52977;44.816;20.538;2023-03-25T15:55:10;98990.13;;;15.69;58.14
66176;BME280;52977;44.816;20.538;2023-03-25T15:57:51;98964.03;;;15.56;58.36
66176;BME280;52977;44.816;20.538;2023-03-25T16:00:23;99007.69;;;15.88;58.14
66176;BME280;52977;44.816;20.538;2023-03-25T16:05:28;98976.81;;;15.75;58.91